Portada
METAR-TAF:

METAR-TAF

Aeroports :

Eagle River Union Airport

Eagle River, Wisconsin, Estats Units d'Amèrica

latitud: 45-55-54N, longitud: 089-16-09W, altitud: 501 m

Observació

L'informe es va fer fa 23 minuts, a les 07:55 UTC
Vent 8 kt del Nord amb ràfegues de 18 kt
Temperatura 1°C
Humitat 93%
Pressió 1014 hPa
Visibilitat: 11.3 km
Cel cobert a una alçada de 1000 ft
desconegut

METAR: KEGV 300755Z AUTO 35008G18KT 7SM UP OVC010 01/00 A2995 RMK AO2 T00070000

Hora: 03:18 (08:18 UTC)


TAF: manca

Observacions i pronòstics meteorològics de més de 4000 aeroports (METAR i TAF).

Les estacions disponibles són els punts grocs i vermells al mapa.

Posi el ratolí al punt desitjat per veure el nom de l'estació.

Feu clic per veure les observacions i els pronòstics meteorològics.

Per canviar el mapa: feu clic els botons verds amb una creu de color negre per apropar; al botó verd amb un guió per allunyar la imatge; o en les fletxes verdes per a mapes adjacents.


METAR-TAF: